sensor_id;sensor_type;location;lat;lon;timestamp;pressure;altitude;pressure_sealevel;temperature;humidity
10064;BME280;5071;52.360;13.134;2023-02-01T00:03:20;100663.34;;;4.57;78.81
10064;BME280;5071;52.360;13.134;2023-02-01T00:08:22;100681.75;;;4.57;79.34
10064;BME280;5071;52.360;13.134;2023-02-01T00:13:24;100665.84;;;4.46;79.66
10064;BME280;5071;52.360;13.134;2023-02-01T00:18:28;100674.03;;;4.73;79.34
10064;BME280;5071;52.360;13.134;2023-02-01T00:23:33;100658.31;;;4.77;78.54
10064;BME280;5071;52.360;13.134;2023-02-01T00:28:35;100648.63;;;4.75;78.36
10064;BME280;5071;52.360;13.134;2023-02-01T00:33:39;100653.19;;;4.91;78.01
10064;BME280;5071;52.360;13.134;2023-02-01T00:38:41;100652.34;;;4.97;78.31
10064;BME280;5071;52.360;13.134;2023-02-01T00:43:44;100683.00;;;4.93;78.89
10064;BME280;5071;52.360;13.134;2023-02-01T00:48:47;100673.19;;;4.74;81.45
10064;BME280;5071;52.360;13.134;2023-02-01T00:53:50;100676.41;;;4.50;82.82
10064;BME280;5071;52.360;13.134;2023-02-01T00:58:53;100664.13;;;4.45;82.77
10064;BME280;5071;52.360;13.134;2023-02-01T01:03:57;100677.28;;;4.47;82.00
10064;BME280;5071;52.360;13.134;2023-02-01T01:09:02;100661.56;;;4.53;81.57
10064;BME280;5071;52.360;13.134;2023-02-01T01:14:07;100669.47;;;4.55;80.22
10064;BME280;5071;52.360;13.134;2023-02-01T01:19:11;100668.66;;;4.60;79.19
10064;BME280;5071;52.360;13.134;2023-02-01T01:24:14;100660.00;;;4.72;78.04
10064;BME280;5071;52.360;13.134;2023-02-01T01:29:16;100671.31;;;4.62;78.64
10064;BME280;5071;52.360;13.134;2023-02-01T01:34:20;100672.13;;;4.56;78.56
10064;BME280;5071;52.360;13.134;2023-02-01T01:39:22;100658.91;;;4.52;78.78
10064;BME280;5071;52.360;13.134;2023-02-01T01:44:57;100657.19;;;4.54;78.71
10064;BME280;5071;52.360;13.134;2023-02-01T01:50:01;100656.31;;;4.53;79.19
10064;BME280;5071;52.360;13.134;2023-02-01T01:55:07;100653.63;;;4.48;79.75
10064;BME280;5071;52.360;13.134;2023-02-01T02:00:12;100650.00;;;4.39;80.23
10064;BME280;5071;52.360;13.134;2023-02-01T02:05:17;100652.78;;;4.51;79.67
10064;BME280;5071;52.360;13.134;2023-02-01T02:10:20;100661.41;;;4.38;80.31
10064;BME280;5071;52.360;13.134;2023-02-01T02:15:23;100660.50;;;4.37;80.40
10064;BME280;5071;52.360;13.134;2023-02-01T02:26:15;100647.47;;;4.45;80.40
10064;BME280;5071;52.360;13.134;2023-02-01T02:31:46;100644.91;;;4.51;80.10
10064;BME280;5071;52.360;13.134;2023-02-01T02:37:00;100656.31;;;4.53;80.50
10064;BME280;5071;52.360;13.134;2023-02-01T02:42:10;100645.84;;;4.59;79.94
10064;BME280;5071;52.360;13.134;2023-02-01T02:47:21;100639.81;;;4.68;79.50
10064;BME280;5071;52.360;13.134;2023-02-01T02:52:27;100637.28;;;4.77;79.10
10064;BME280;5071;52.360;13.134;2023-02-01T02:57:33;100636.41;;;4.77;79.32
10064;BME280;5071;52.360;13.134;2023-02-01T03:02:37;100621.41;;;4.68;79.34
10064;BME280;5071;52.360;13.134;2023-02-01T03:07:53;100623.13;;;4.64;79.30
10064;BME280;5071;52.360;13.134;2023-02-01T03:13:01;100620.56;;;4.72;78.51
10064;BME280;5071;52.360;13.134;2023-02-01T03:18:08;100605.47;;;4.54;79.56
10064;BME280;5071;52.360;13.134;2023-02-01T03:23:17;100610.88;;;4.66;79.29
10064;BME280;5071;52.360;13.134;2023-02-01T03:28:23;100604.75;;;4.69;79.07
10064;BME280;5071;52.360;13.134;2023-02-01T03:33:26;100579.34;;;4.68;79.13
10064;BME280;5071;52.360;13.134;2023-02-01T03:38:32;100585.47;;;4.65;78.94
10064;BME280;5071;52.360;13.134;2023-02-01T03:43:42;100574.88;;;4.56;80.00
10064;BME280;5071;52.360;13.134;2023-02-01T03:48:47;100583.69;;;4.64;79.64
10064;BME280;5071;52.360;13.134;2023-02-01T03:53:53;100588.09;;;4.67;79.51
10064;BME280;5071;52.360;13.134;2023-02-01T03:58:56;100588.16;;;4.72;79.22
10064;BME280;5071;52.360;13.134;2023-02-01T04:03:59;100583.84;;;4.81;78.69
10064;BME280;5071;52.360;13.134;2023-02-01T04:09:03;100575.97;;;4.83;78.86
10064;BME280;5071;52.360;13.134;2023-02-01T04:14:05;100574.28;;;4.88;78.71
10064;BME280;5071;52.360;13.134;2023-02-01T04:19:08;100564.63;;;4.89;79.10
10064;BME280;5071;52.360;13.134;2023-02-01T04:24:11;100561.09;;;4.90;78.92
10064;BME280;5071;52.360;13.134;2023-02-01T04:29:13;100569.97;;;4.99;78.81
10064;BME280;5071;52.360;13.134;2023-02-01T04:34:16;100549.78;;;4.98;78.48
10064;BME280;5071;52.360;13.134;2023-02-01T04:39:19;100559.50;;;5.09;78.51
10064;BME280;5071;52.360;13.134;2023-02-01T04:44:22;100554.19;;;4.99;78.85
10064;BME280;5071;52.360;13.134;2023-02-01T04:49:24;100555.97;;;5.03;78.74
10064;BME280;5071;52.360;13.134;2023-02-01T04:54:27;100546.31;;;5.02;78.47
10064;BME280;5071;52.360;13.134;2023-02-01T04:59:29;100550.72;;;5.05;78.75
10064;BME280;5071;52.360;13.134;2023-02-01T05:04:31;100528.78;;;5.04;78.75
10064;BME280;5071;52.360;13.134;2023-02-01T05:09:35;100531.41;;;5.01;79.10
10064;BME280;5071;52.360;13.134;2023-02-01T05:14:38;100532.22;;;4.97;79.05
10064;BME280;5071;52.360;13.134;2023-02-01T05:19:40;100528.81;;;5.07;78.39
10064;BME280;5071;52.360;13.134;2023-02-01T05:24:44;100525.25;;;5.02;79.00
10064;BME280;5071;52.360;13.134;2023-02-01T05:29:46;100525.25;;;5.02;78.93
10064;BME280;5071;52.360;13.134;2023-02-01T05:34:48;100516.50;;;5.03;78.82
10064;BME280;5071;52.360;13.134;2023-02-01T05:39:51;100515.59;;;5.00;79.17
10064;BME280;5071;52.360;13.134;2023-02-01T05:44:53;100514.75;;;4.99;78.78
10064;BME280;5071;52.360;13.134;2023-02-01T05:49:55;100511.25;;;5.03;78.87
10064;BME280;5071;52.360;13.134;2023-02-01T05:54:59;100493.66;;;4.96;78.98
10064;BME280;5071;52.360;13.134;2023-02-01T06:00:02;100491.06;;;4.98;79.55
10064;BME280;5071;52.360;13.134;2023-02-01T06:05:05;100491.88;;;4.91;79.91
10064;BME280;5071;52.360;13.134;2023-02-01T06:10:10;100482.28;;;5.00;79.75
10064;BME280;5071;52.360;13.134;2023-02-01T06:15:13;100482.28;;;4.96;79.30
10064;BME280;5071;52.360;13.134;2023-02-01T06:20:16;100477.88;;;4.95;79.33
10064;BME280;5071;52.360;13.134;2023-02-01T06:25:20;100467.38;;;4.96;78.77
10064;BME280;5071;52.360;13.134;2023-02-01T06:30:22;100469.94;;;4.92;79.00
10064;BME280;5071;52.360;13.134;2023-02-01T06:35:25;100448.94;;;4.90;78.77
10064;BME280;5071;52.360;13.134;2023-02-01T06:40:29;100457.72;;;4.94;78.81
10064;BME280;5071;52.360;13.134;2023-02-01T06:45:31;100456.81;;;4.90;79.11
10064;BME280;5071;52.360;13.134;2023-02-01T06:50:33;100444.56;;;4.92;79.05
10064;BME280;5071;52.360;13.134;2023-02-01T06:55:36;100436.66;;;4.92;78.99
10064;BME280;5071;52.360;13.134;2023-02-01T07:00:38;100432.25;;;4.91;79.11
10064;BME280;5071;52.360;13.134;2023-02-01T07:05:41;100439.31;;;4.98;78.29
10064;BME280;5071;52.360;13.134;2023-02-01T07:10:44;100431.44;;;4.98;79.34
10064;BME280;5071;52.360;13.134;2023-02-01T07:15:46;100436.66;;;4.95;80.16
10064;BME280;5071;52.360;13.134;2023-02-01T07:20:50;100416.47;;;4.86;80.93
10064;BME280;5071;52.360;13.134;2023-02-01T07:25:54;100408.63;;;4.97;80.99
10064;BME280;5071;52.360;13.134;2023-02-01T07:31:02;100397.16;;;4.86;83.10
10064;BME280;5071;52.360;13.134;2023-02-01T07:36:06;100395.25;;;4.59;86.43
10064;BME280;5071;52.360;13.134;2023-02-01T07:41:10;100398.63;;;4.41;88.08
10064;BME280;5071;52.360;13.134;2023-02-01T07:46:12;100390.69;;;4.30;89.81
10064;BME280;5071;52.360;13.134;2023-02-01T07:51:16;100393.19;;;4.16;92.33
10064;BME280;5071;52.360;13.134;2023-02-01T07:56:20;100394.00;;;4.06;94.18
10064;BME280;5071;52.360;13.134;2023-02-01T08:01:24;100383.44;;;3.98;95.16
10064;BME280;5071;52.360;13.134;2023-02-01T08:06:29;100384.19;;;3.86;96.77
10064;BME280;5071;52.360;13.134;2023-02-01T08:11:33;100375.31;;;3.75;97.67
10064;BME280;5071;52.360;13.134;2023-02-01T08:16:35;100386.69;;;3.73;98.38
10064;BME280;5071;52.360;13.134;2023-02-01T08:21:38;100391.97;;;3.76;98.64
10064;BME280;5071;52.360;13.134;2023-02-01T08:26:42;100385.00;;;3.78;98.92
10064;BME280;5071;52.360;13.134;2023-02-01T08:31:44;100403.50;;;3.92;97.84
10064;BME280;5071;52.360;13.134;2023-02-01T08:36:46;100410.56;;;3.99;97.73
10064;BME280;5071;52.360;13.134;2023-02-01T08:41:49;100411.38;;;3.93;97.85
10064;BME280;5071;52.360;13.134;2023-02-01T08:46:51;100408.69;;;3.85;98.18
10064;BME280;5071;52.360;13.134;2023-02-01T08:51:54;100419.13;;;3.81;98.54
10064;BME280;5071;52.360;13.134;2023-02-01T08:57:03;100424.34;;;3.76;98.58
10064;BME280;5071;52.360;13.134;2023-02-01T09:02:05;100435.72;;;3.74;99.06
10064;BME280;5071;52.360;13.134;2023-02-01T09:07:07;100448.94;;;3.84;99.30
10064;BME280;5071;52.360;13.134;2023-02-01T09:12:11;100443.72;;;3.87;99.30
10064;BME280;5071;52.360;13.134;2023-02-01T09:17:13;100453.47;;;4.01;99.07
10064;BME280;5071;52.360;13.134;2023-02-01T09:22:15;100452.63;;;4.02;98.69
10064;BME280;5071;52.360;13.134;2023-02-01T09:27:19;100465.75;;;4.02;98.24
10064;BME280;5071;52.360;13.134;2023-02-01T09:32:23;100469.28;;;4.07;97.16
10064;BME280;5071;52.360;13.134;2023-02-01T09:37:25;100476.41;;;4.17;96.53
10064;BME280;5071;52.360;13.134;2023-02-01T09:42:44;100486.91;;;4.17;95.82
10064;BME280;5071;52.360;13.134;2023-02-01T09:47:54;100494.78;;;4.20;95.23
10064;BME280;5071;52.360;13.134;2023-02-01T09:53:00;100492.09;;;4.11;95.08
10064;BME280;5071;52.360;13.134;2023-02-01T09:58:08;100507.94;;;4.22;94.78
10064;BME280;5071;52.360;13.134;2023-02-01T10:03:14;100515.75;;;4.11;95.81
10064;BME280;5071;52.360;13.134;2023-02-01T10:08:24;100519.41;;;4.32;96.39
10064;BME280;5071;52.360;13.134;2023-02-01T10:13:43;100511.50;;;4.25;96.48
10064;BME280;5071;52.360;13.134;2023-02-01T10:19:05;100514.38;;;4.53;94.56
10064;BME280;5071;52.360;13.134;2023-02-01T10:24:20;100510.94;;;4.63;93.63
10064;BME280;5071;52.360;13.134;2023-02-01T10:29:32;100499.59;;;4.67;92.86
10064;BME280;5071;52.360;13.134;2023-02-01T10:34:36;100510.09;;;4.66;92.27
10064;BME280;5071;52.360;13.134;2023-02-01T10:39:38;100499.72;;;4.83;91.48
10064;BME280;5071;52.360;13.134;2023-02-01T10:44:43;100495.56;;;5.25;90.87
10064;BME280;5071;52.360;13.134;2023-02-01T10:49:52;100488.59;;;5.30;89.97
10064;BME280;5071;52.360;13.134;2023-02-01T11:00:21;100477.16;;;5.20;90.04
10064;BME280;5071;52.360;13.134;2023-02-01T11:05:25;100488.91;;;6.01;86.37
10064;BME280;5071;52.360;13.134;2023-02-01T11:10:35;100483.66;;;8.66;73.07
10064;BME280;5071;52.360;13.134;2023-02-01T11:15:43;100481.91;;;6.31;82.18
10064;BME280;5071;52.360;13.134;2023-02-01T11:20:46;100473.81;;;5.64;85.12
10064;BME280;5071;52.360;13.134;2023-02-01T11:25:51;100480.00;;;5.77;85.80
10064;BME280;5071;52.360;13.134;2023-02-01T11:30:57;100475.72;;;6.12;84.80
10064;BME280;5071;52.360;13.134;2023-02-01T11:36:01;100463.44;;;6.35;82.79
10064;BME280;5071;52.360;13.134;2023-02-01T11:41:13;100455.53;;;6.49;82.74
10064;BME280;5071;52.360;13.134;2023-02-01T11:46:19;100454.63;;;6.13;83.60
10064;BME280;5071;52.360;13.134;2023-02-01T11:51:34;100441.47;;;6.26;83.07
10064;BME280;5071;52.360;13.134;2023-02-01T11:56:47;100435.31;;;6.59;81.20
10064;BME280;5071;52.360;13.134;2023-02-01T12:02:30;100437.06;;;6.60;80.20
10064;BME280;5071;52.360;13.134;2023-02-01T12:07:52;100422.00;;;7.16;77.78
10064;BME280;5071;52.360;13.134;2023-02-01T12:13:05;100429.06;;;7.05;77.13
10064;BME280;5071;52.360;13.134;2023-02-01T12:24:07;100415.91;;;6.92;76.46
10064;BME280;5071;52.360;13.134;2023-02-01T12:29:34;100402.72;;;6.85;76.30
10064;BME280;5071;52.360;13.134;2023-02-01T12:40:30;100375.59;;;6.44;77.70
10064;BME280;5071;52.360;13.134;2023-02-01T12:45:40;100407.22;;;6.52;78.02
10064;BME280;5071;52.360;13.134;2023-02-01T12:50:46;100381.75;;;6.31;78.37
10064;BME280;5071;52.360;13.134;2023-02-01T12:55:55;100385.25;;;6.23;78.67
10064;BME280;5071;52.360;13.134;2023-02-01T13:00:59;100386.13;;;6.09;79.00
10064;BME280;5071;52.360;13.134;2023-02-01T13:06:07;100387.00;;;6.06;80.06
10064;BME280;5071;52.360;13.134;2023-02-01T13:11:17;100380.88;;;6.15;79.76
10064;BME280;5071;52.360;13.134;2023-02-01T13:16:23;100366.81;;;6.13;79.92
10064;BME280;5071;52.360;13.134;2023-02-01T13:21:32;100365.91;;;6.15;79.83
10064;BME280;5071;52.360;13.134;2023-02-01T13:26:37;100351.84;;;6.32;79.22
10064;BME280;5071;52.360;13.134;2023-02-01T13:32:08;100348.31;;;6.45;78.89
10064;BME280;5071;52.360;13.134;2023-02-01T13:38:12;100338.66;;;6.47;78.50
10064;BME280;5071;52.360;13.134;2023-02-01T13:43:26;100329.84;;;6.51;78.98
10064;BME280;5071;52.360;13.134;2023-02-01T13:48:40;100317.50;;;6.64;78.37
10064;BME280;5071;52.360;13.134;2023-02-01T13:53:46;100318.44;;;6.43;78.64
10064;BME280;5071;52.360;13.134;2023-02-01T13:58:51;100310.59;;;6.20;82.57
10064;BME280;5071;52.360;13.134;2023-02-01T14:03:54;100305.31;;;6.06;83.53
10064;BME280;5071;52.360;13.134;2023-02-01T14:09:19;100302.72;;;6.03;82.38
10064;BME280;5071;52.360;13.134;2023-02-01T14:14:43;100293.91;;;6.12;80.87
10064;BME280;5071;52.360;13.134;2023-02-01T14:19:46;100281.63;;;6.09;80.73
10064;BME280;5071;52.360;13.134;2023-02-01T14:24:50;100264.03;;;6.20;79.05
10064;BME280;5071;52.360;13.134;2023-02-01T14:29:57;100257.00;;;6.16;78.43
10064;BME280;5071;52.360;13.134;2023-02-01T14:35:00;100257.88;;;6.25;77.62
10064;BME280;5071;52.360;13.134;2023-02-01T14:40:14;100251.72;;;6.21;77.81
10064;BME280;5071;52.360;13.134;2023-02-01T14:45:49;100228.88;;;6.29;75.60
10064;BME280;5071;52.360;13.134;2023-02-01T14:51:09;100248.22;;;6.25;76.41
10064;BME280;5071;52.360;13.134;2023-02-01T14:56:16;100252.66;;;5.88;80.08
10064;BME280;5071;52.360;13.134;2023-02-01T15:01:23;100248.25;;;5.31;86.14
10064;BME280;5071;52.360;13.134;2023-02-01T15:06:38;100242.03;;;4.95;88.39
10064;BME280;5071;52.360;13.134;2023-02-01T15:11:55;100239.38;;;4.80;90.51
10064;BME280;5071;52.360;13.134;2023-02-01T15:16:59;100221.75;;;4.54;91.55
10064;BME280;5071;52.360;13.134;2023-02-01T15:22:01;100220.84;;;4.43;92.98
10064;BME280;5071;52.360;13.134;2023-02-01T15:27:05;100198.88;;;4.32;94.49
10064;BME280;5071;52.360;13.134;2023-02-01T15:32:28;100198.81;;;4.16;95.81
10064;BME280;5071;52.360;13.134;2023-02-01T15:37:31;100189.16;;;4.09;97.19
10064;BME280;5071;52.360;13.134;2023-02-01T15:42:34;100187.41;;;4.02;98.56
10064;BME280;5071;52.360;13.134;2023-02-01T15:47:38;100174.25;;;4.00;99.46
10064;BME280;5071;52.360;13.134;2023-02-01T15:52:41;100169.94;;;4.12;99.22
10064;BME280;5071;52.360;13.134;2023-02-01T15:57:43;100169.91;;;4.05;100.00
10064;BME280;5071;52.360;13.134;2023-02-01T16:02:54;100169.09;;;4.22;99.29
10064;BME280;5071;52.360;13.134;2023-02-01T16:08:00;100190.16;;;4.28;98.84
10064;BME280;5071;52.360;13.134;2023-02-01T16:13:02;100276.16;;;3.39;98.81
10064;BME280;5071;52.360;13.134;2023-02-01T16:18:06;100302.97;;;2.38;99.52
10064;BME280;5071;52.360;13.134;2023-02-01T16:23:09;100304.50;;;2.22;100.00
10064;BME280;5071;52.360;13.134;2023-02-01T16:28:11;100308.84;;;2.20;100.00
10064;BME280;5071;52.360;13.134;2023-02-01T16:33:18;100307.19;;;2.28;100.00
10064;BME280;5071;52.360;13.134;2023-02-01T16:38:21;100308.91;;;2.26;100.00
10064;BME280;5071;52.360;13.134;2023-02-01T16:43:25;100328.16;;;2.28;100.00
10064;BME280;5071;52.360;13.134;2023-02-01T16:48:30;100334.50;;;2.46;100.00
10064;BME280;5071;52.360;13.134;2023-02-01T16:59:18;100326.19;;;2.78;100.00
10064;BME280;5071;52.360;13.134;2023-02-01T17:04:22;100337.66;;;2.86;100.00
10064;BME280;5071;52.360;13.134;2023-02-01T17:09:24;100336.88;;;2.95;100.00
10064;BME280;5071;52.360;13.134;2023-02-01T17:14:26;100343.94;;;3.02;99.97
10064;BME280;5071;52.360;13.134;2023-02-01T17:19:55;100353.63;;;3.07;99.75
10064;BME280;5071;52.360;13.134;2023-02-01T17:24:57;100353.72;;;3.15;99.44
10064;BME280;5071;52.360;13.134;2023-02-01T17:29:59;100355.63;;;3.28;99.17
10064;BME280;5071;52.360;13.134;2023-02-01T17:35:02;100364.38;;;3.29;98.96
10064;BME280;5071;52.360;13.134;2023-02-01T17:40:06;100362.66;;;3.31;99.16
10064;BME280;5071;52.360;13.134;2023-02-01T17:45:20;100376.81;;;3.45;98.66
10064;BME280;5071;52.360;13.134;2023-02-01T17:50:27;100365.38;;;3.43;99.21
10064;BME280;5071;52.360;13.134;2023-02-01T17:55:34;100367.19;;;3.46;99.70
10064;BME280;5071;52.360;13.134;2023-02-01T18:00:51;100365.47;;;3.49;99.49
10064;BME280;5071;52.360;13.134;2023-02-01T18:05:56;100380.34;;;3.52;99.13
10064;BME280;5071;52.360;13.134;2023-02-01T18:11:00;100379.53;;;3.56;98.72
10064;BME280;5071;52.360;13.134;2023-02-01T18:16:02;100391.84;;;3.63;98.38
10064;BME280;5071;52.360;13.134;2023-02-01T18:21:07;100397.16;;;3.69;98.42
10064;BME280;5071;52.360;13.134;2023-02-01T18:26:10;100399.78;;;3.69;97.56
10064;BME280;5071;52.360;13.134;2023-02-01T18:31:20;100392.81;;;3.70;97.76
10064;BME280;5071;52.360;13.134;2023-02-01T18:36:24;100388.44;;;3.70;97.32
10064;BME280;5071;52.360;13.134;2023-02-01T18:41:27;100378.78;;;3.71;96.98
10064;BME280;5071;52.360;13.134;2023-02-01T18:46:30;100387.59;;;3.76;96.46
10064;BME280;5071;52.360;13.134;2023-02-01T18:51:37;100383.16;;;3.69;97.16
10064;BME280;5071;52.360;13.134;2023-02-01T18:56:39;100399.78;;;3.71;97.19
10064;BME280;5071;52.360;13.134;2023-02-01T19:01:41;100390.13;;;3.65;97.97
10064;BME280;5071;52.360;13.134;2023-02-01T19:06:47;100405.09;;;3.74;96.75
10064;BME280;5071;52.360;13.134;2023-02-01T19:11:49;100412.91;;;3.69;96.74
10064;BME280;5071;52.360;13.134;2023-02-01T19:16:52;100397.28;;;3.82;95.33
10064;BME280;5071;52.360;13.134;2023-02-01T19:21:55;100414.78;;;3.84;94.94
10064;BME280;5071;52.360;13.134;2023-02-01T19:26:57;100412.09;;;3.77;94.67
10064;BME280;5071;52.360;13.134;2023-02-01T19:32:00;100416.47;;;3.76;94.55
10064;BME280;5071;52.360;13.134;2023-02-01T19:37:03;100419.97;;;3.74;95.01
10064;BME280;5071;52.360;13.134;2023-02-01T19:42:05;100421.59;;;3.65;95.58
10064;BME280;5071;52.360;13.134;2023-02-01T19:47:08;100422.47;;;3.66;95.57
10064;BME280;5071;52.360;13.134;2023-02-01T19:52:11;100407.63;;;3.66;95.21
10064;BME280;5071;52.360;13.134;2023-02-01T19:57:16;100410.13;;;3.56;94.61
10064;BME280;5071;52.360;13.134;2023-02-01T20:02:18;100430.28;;;3.60;94.54
10064;BME280;5071;52.360;13.134;2023-02-01T20:07:22;100425.97;;;3.63;93.93
10064;BME280;5071;52.360;13.134;2023-02-01T20:12:24;100431.13;;;3.56;93.67
10064;BME280;5071;52.360;13.134;2023-02-01T20:17:28;100427.66;;;3.58;93.44
10064;BME280;5071;52.360;13.134;2023-02-01T20:22:32;100430.22;;;3.52;92.79
10064;BME280;5071;52.360;13.134;2023-02-01T20:27:34;100430.91;;;3.37;93.47
10064;BME280;5071;52.360;13.134;2023-02-01T20:32:36;100433.53;;;3.37;92.63
10064;BME280;5071;52.360;13.134;2023-02-01T20:37:53;100443.25;;;3.44;92.37
10064;BME280;5071;52.360;13.134;2023-02-01T20:42:56;100442.28;;;3.38;92.05
10064;BME280;5071;52.360;13.134;2023-02-01T20:48:01;100450.19;;;3.39;91.96
10064;BME280;5071;52.360;13.134;2023-02-01T20:53:04;100432.59;;;3.29;92.52
10064;BME280;5071;52.360;13.134;2023-02-01T20:58:07;100433.44;;;3.28;92.39
10064;BME280;5071;52.360;13.134;2023-02-01T21:03:09;100435.09;;;3.20;92.75
10064;BME280;5071;52.360;13.134;2023-02-01T21:08:12;100423.72;;;3.21;93.16
10064;BME280;5071;52.360;13.134;2023-02-01T21:13:15;100422.06;;;3.27;92.15
10064;BME280;5071;52.360;13.134;2023-02-01T21:18:17;100441.28;;;3.25;92.01
10064;BME280;5071;52.360;13.134;2023-02-01T21:23:21;100433.31;;;3.19;92.03
10064;BME280;5071;52.360;13.134;2023-02-01T21:28:23;100433.31;;;3.19;91.71
10064;BME280;5071;52.360;13.134;2023-02-01T21:33:25;100428.97;;;3.21;91.76
10064;BME280;5071;52.360;13.134;2023-02-01T21:38:29;100419.25;;;3.12;91.33
10064;BME280;5071;52.360;13.134;2023-02-01T21:43:32;100428.16;;;3.26;90.37
10064;BME280;5071;52.360;13.134;2023-02-01T21:48:34;100411.44;;;3.17;90.32
10064;BME280;5071;52.360;13.134;2023-02-01T21:53:58;100450.06;;;3.28;89.54
10064;BME280;5071;52.360;13.134;2023-02-01T21:59:00;100440.34;;;3.21;89.79
10064;BME280;5071;52.360;13.134;2023-02-01T22:04:03;100449.94;;;3.21;89.42
10064;BME280;5071;52.360;13.134;2023-02-01T22:09:13;100449.03;;;3.17;89.36
10064;BME280;5071;52.360;13.134;2023-02-01T22:14:16;100472.59;;;3.14;89.64
10064;BME280;5071;52.360;13.134;2023-02-01T22:19:19;100460.31;;;3.11;89.93
10064;BME280;5071;52.360;13.134;2023-02-01T22:24:22;100470.94;;;3.21;89.81
10064;BME280;5071;52.360;13.134;2023-02-01T22:29:25;100464.19;;;3.41;88.98
10064;BME280;5071;52.360;13.134;2023-02-01T22:34:27;100460.66;;;3.39;88.93
10064;BME280;5071;52.360;13.134;2023-02-01T22:39:30;100454.56;;;3.39;88.95
10064;BME280;5071;52.360;13.134;2023-02-01T22:44:32;100455.53;;;3.45;88.46
10064;BME280;5071;52.360;13.134;2023-02-01T22:49:34;100445.81;;;3.41;88.83
10064;BME280;5071;52.360;13.134;2023-02-01T22:54:38;100452.84;;;3.42;88.95
10064;BME280;5071;52.360;13.134;2023-02-01T22:59:40;100450.34;;;3.55;88.52
10064;BME280;5071;52.360;13.134;2023-02-01T23:04:42;100455.41;;;3.39;88.92
10064;BME280;5071;52.360;13.134;2023-02-01T23:09:46;100455.53;;;3.45;89.30
10064;BME280;5071;52.360;13.134;2023-02-01T23:14:48;100449.47;;;3.54;88.64
10064;BME280;5071;52.360;13.134;2023-02-01T23:19:56;100456.56;;;3.61;88.60
10064;BME280;5071;52.360;13.134;2023-02-01T23:24:59;100442.53;;;3.58;88.66
10064;BME280;5071;52.360;13.134;2023-02-01T23:30:02;100438.16;;;3.60;88.47
10064;BME280;5071;52.360;13.134;2023-02-01T23:35:05;100443.53;;;3.69;88.28
10064;BME280;5071;52.360;13.134;2023-02-01T23:40:10;100434.72;;;3.62;88.49
10064;BME280;5071;52.360;13.134;2023-02-01T23:45:13;100427.78;;;3.69;88.16
10064;BME280;5071;52.360;13.134;2023-02-01T23:50:15;100413.06;;;3.83;87.48
10064;BME280;5071;52.360;13.134;2023-02-01T23:55:18;100417.56;;;3.97;86.13
